createdAt,value
2019-05-19T00:01:11.218Z,83.09
2019-05-19T00:03:41.361Z,83.16
2019-05-19T00:06:11.569Z,82.89
2019-05-19T00:08:42.392Z,83.01
2019-05-19T00:11:12.501Z,82.63
2019-05-19T00:13:42.499Z,82.59
2019-05-19T00:16:12.533Z,83.03
2019-05-19T00:18:42.541Z,82.95
2019-05-19T00:21:12.697Z,83.51
2019-05-19T00:23:42.728Z,83.16
2019-05-19T00:26:12.852Z,83.21
2019-05-19T00:28:42.893Z,83.45
2019-05-19T00:31:12.926Z,83.28
2019-05-19T00:33:44.097Z,83.43
2019-05-19T00:36:14.172Z,83.12
2019-05-19T00:38:44.200Z,83.32
2019-05-19T00:41:14.241Z,83.51
2019-05-19T00:43:44.259Z,83.58
2019-05-19T00:46:14.273Z,83.47
2019-05-19T00:48:44.342Z,84.28
2019-05-19T00:51:14.479Z,84.88
2019-05-19T00:53:44.562Z,83.96
2019-05-19T00:56:14.811Z,86.34
2019-05-19T00:58:45.066Z,85.77
2019-05-19T01:01:15.208Z,86.50
2019-05-19T01:03:45.357Z,85.95
2019-05-19T01:06:15.366Z,85.87
2019-05-19T01:08:45.844Z,84.57
2019-05-19T01:11:15.926Z,84.28
2019-05-19T01:13:45.964Z,84.37
2019-05-19T01:16:15.983Z,84.82
2019-05-19T01:18:46.037Z,84.07
2019-05-19T01:21:16.180Z,84.15
2019-05-19T01:23:46.245Z,84.35
2019-05-19T01:26:16.250Z,86.21
2019-05-19T01:28:46.285Z,86.44
2019-05-19T01:31:16.924Z,86.67
2019-05-19T01:33:46.989Z,85.27
2019-05-19T01:36:17.016Z,85.22
2019-05-19T01:38:47.087Z,84.55
2019-05-19T01:41:17.111Z,84.33
2019-05-19T01:43:47.171Z,84.62
2019-05-19T01:46:17.173Z,84.42
2019-05-19T01:48:48.277Z,83.76
2019-05-19T01:51:18.279Z,84.30
2019-05-19T01:53:48.336Z,84.56
2019-05-19T01:56:18.353Z,84.70
2019-05-19T01:58:48.368Z,85.04
2019-05-19T02:01:18.391Z,85.63
2019-05-19T02:03:49.361Z,85.18
2019-05-19T02:06:19.359Z,86.23
2019-05-19T02:08:49.394Z,86.25
2019-05-19T02:11:19.504Z,86.89
2019-05-19T02:13:49.439Z,85.64
2019-05-19T02:16:19.543Z,85.80
2019-05-19T02:18:49.554Z,84.75
2019-05-19T02:21:19.557Z,86.02
2019-05-19T02:23:49.583Z,85.94
2019-05-19T02:26:19.591Z,85.11
2019-05-19T02:28:49.636Z,85.25
2019-05-19T02:31:19.715Z,85.46
2019-05-19T02:33:49.743Z,85.55
2019-05-19T02:36:19.827Z,85.03
2019-05-19T02:38:49.966Z,85.16
2019-05-19T02:41:22.092Z,86.10
2019-05-19T02:43:54.152Z,86.49
2019-05-19T02:46:25.388Z,84.77
2019-05-19T02:48:56.891Z,84.86
2019-05-19T02:51:29.275Z,84.96
2019-05-19T02:54:00.866Z,84.96
2019-05-19T02:56:32.686Z,85.48
2019-05-19T02:59:03.269Z,86.15
2019-05-19T03:01:34.917Z,86.50
2019-05-19T03:04:05.161Z,85.53
2019-05-19T03:06:36.283Z,85.53
2019-05-19T03:09:06.335Z,86.19
2019-05-19T03:11:36.330Z,86.20
2019-05-19T03:14:06.353Z,85.63
2019-05-19T03:16:36.437Z,86.06
2019-05-19T03:19:06.594Z,85.23
2019-05-19T03:21:36.593Z,84.04
2019-05-19T03:24:06.687Z,83.92
2019-05-19T03:26:36.683Z,83.80
2019-05-19T03:29:07.214Z,81.92
2019-05-19T03:31:44.807Z,82.81
2019-05-19T03:34:15.420Z,83.39
2019-05-19T03:36:45.468Z,83.64
2019-05-19T03:39:15.514Z,82.23
2019-05-19T03:41:45.496Z,83.02
2019-05-19T03:44:15.490Z,82.53
2019-05-19T03:46:45.494Z,83.97
2019-05-19T03:49:15.742Z,84.15
2019-05-19T03:51:45.781Z,83.81
2019-05-19T03:54:15.769Z,84.17
2019-05-19T03:56:45.765Z,83.80
2019-05-19T03:59:15.840Z,83.55
2019-05-19T04:01:45.830Z,84.06
2019-05-19T04:04:15.959Z,83.68
2019-05-19T04:06:45.965Z,84.79
2019-05-19T04:09:17.461Z,84.27
2019-05-19T04:11:47.792Z,84.09
2019-05-19T04:14:17.813Z,83.96
2019-05-19T04:16:49.433Z,83.70
2019-05-19T04:19:19.442Z,84.06
2019-05-19T04:21:49.849Z,83.96
2019-05-19T04:24:19.886Z,83.52
2019-05-19T04:26:49.911Z,83.97
2019-05-19T04:29:19.963Z,83.32
2019-05-19T04:31:49.980Z,83.62
2019-05-19T04:34:19.976Z,83.92
2019-05-19T04:36:49.951Z,83.41
2019-05-19T04:39:19.960Z,84.60
2019-05-19T04:41:49.974Z,85.17
2019-05-19T04:44:19.961Z,84.24
2019-05-19T04:46:50.917Z,84.40
2019-05-19T04:49:20.911Z,83.82
2019-05-19T04:52:05.418Z,84.62
2019-05-19T04:54:22.608Z,84.16
2019-05-19T04:56:52.672Z,83.29
2019-05-19T04:59:23.632Z,84.42
2019-05-19T05:01:53.621Z,84.45
2019-05-19T05:04:29.002Z,85.53
2019-05-19T05:06:55.461Z,84.28
2019-05-19T05:09:25.491Z,84.55
2019-05-19T05:11:55.496Z,85.53
2019-05-19T05:14:25.504Z,84.95
2019-05-19T05:16:55.504Z,84.84
2019-05-19T05:19:25.483Z,84.03
2019-05-19T05:21:55.508Z,84.27
2019-05-19T05:24:28.451Z,83.20
2019-05-19T05:26:57.207Z,84.81
2019-05-19T05:29:27.207Z,84.86
2019-05-19T05:31:57.261Z,84.47
2019-05-19T05:34:27.236Z,83.60
2019-05-19T05:36:57.227Z,84.72
2019-05-19T05:39:27.287Z,84.44
2019-05-19T05:41:57.262Z,83.16
2019-05-19T05:44:27.316Z,83.21
2019-05-19T05:46:57.314Z,83.66
2019-05-19T05:49:27.332Z,84.91
2019-05-19T05:51:57.342Z,85.38
2019-05-19T05:54:27.337Z,85.23
2019-05-19T05:56:57.354Z,84.43
2019-05-19T05:59:27.349Z,85.34
2019-05-19T06:01:57.357Z,85.77
2019-05-19T06:04:27.342Z,83.94
2019-05-19T06:06:57.345Z,84.21
2019-05-19T06:09:27.405Z,84.67
2019-05-19T06:11:57.393Z,84.34
2019-05-19T06:14:27.411Z,84.15
2019-05-19T06:16:57.399Z,84.72
2019-05-19T06:19:27.404Z,84.26
2019-05-19T06:21:57.486Z,84.47
2019-05-19T06:24:27.471Z,85.49
2019-05-19T06:26:57.544Z,84.11
2019-05-19T06:29:27.532Z,83.50
2019-05-19T06:31:59.219Z,83.88
2019-05-19T06:34:29.223Z,84.93
2019-05-19T06:36:59.364Z,84.53
2019-05-19T06:39:29.369Z,83.09
2019-05-19T06:41:59.437Z,83.15
2019-05-19T06:44:29.411Z,82.64
2019-05-19T06:46:59.423Z,83.39
2019-05-19T06:49:29.419Z,83.46
2019-05-19T06:51:59.436Z,83.21
2019-05-19T06:54:30.523Z,84.31
2019-05-19T06:57:00.515Z,84.42
2019-05-19T06:59:30.622Z,83.44
2019-05-19T07:02:00.624Z,84.30
2019-05-19T07:04:30.668Z,84.73
2019-05-19T07:07:00.774Z,84.27
2019-05-19T07:09:31.875Z,84.89
2019-05-19T07:12:01.893Z,84.71
2019-05-19T07:14:31.882Z,83.31
2019-05-19T07:17:01.872Z,82.79
2019-05-19T07:19:31.955Z,82.60
2019-05-19T07:22:01.928Z,81.68
2019-05-19T07:24:31.938Z,82.94
2019-05-19T07:27:03.030Z,83.20
2019-05-19T07:29:33.060Z,82.78
2019-05-19T07:32:03.170Z,83.46
2019-05-19T07:34:33.252Z,83.98
2019-05-19T07:37:03.239Z,84.07
2019-05-19T07:39:33.396Z,84.97
2019-05-19T07:42:03.405Z,84.64
2019-05-19T07:44:33.434Z,84.92
2019-05-19T07:47:03.436Z,84.98
2019-05-19T07:49:33.469Z,71.41
2019-05-19T07:52:03.464Z,69.87
2019-05-19T07:54:33.530Z,69.80
2019-05-19T07:57:03.545Z,77.35
2019-05-19T07:59:33.568Z,77.60
2019-05-19T08:02:03.686Z,83.21
2019-05-19T08:04:33.702Z,83.77
2019-05-19T08:07:03.821Z,82.23
2019-05-19T08:09:33.818Z,82.49
2019-05-19T08:12:04.323Z,80.99
2019-05-19T08:14:34.414Z,71.10
2019-05-19T08:17:04.429Z,65.87
2019-05-19T08:19:34.429Z,64.90
2019-05-19T08:22:04.539Z,73.77
2019-05-19T08:24:34.606Z,78.18
2019-05-19T08:27:04.730Z,79.25
2019-05-19T08:29:34.731Z,82.93
2019-05-19T08:32:04.811Z,76.62
2019-05-19T08:34:34.835Z,74.84
2019-05-19T08:37:05.149Z,70.75
2019-05-19T08:39:35.139Z,71.95
2019-05-19T08:42:05.127Z,72.80
2019-05-19T08:44:35.189Z,74.31
2019-05-19T08:47:05.256Z,77.01
2019-05-19T08:49:35.346Z,72.16
2019-05-19T08:52:05.430Z,78.38
2019-05-19T08:54:35.450Z,75.08
2019-05-19T08:57:05.507Z,78.94
2019-05-19T08:59:35.503Z,68.74
2019-05-19T09:02:05.664Z,73.23
2019-05-19T09:04:35.684Z,75.27
2019-05-19T09:07:05.721Z,76.86
2019-05-19T09:09:35.754Z,76.33
2019-05-19T09:12:05.878Z,79.52
2019-05-19T09:14:35.880Z,81.16
2019-05-19T09:17:05.973Z,76.72
2019-05-19T09:19:37.409Z,77.62
2019-05-19T09:22:07.553Z,77.27
2019-05-19T09:24:37.562Z,78.25
2019-05-19T09:27:07.769Z,79.29
2019-05-19T09:29:37.769Z,80.04
2019-05-19T09:32:07.869Z,79.73
2019-05-19T09:34:37.980Z,80.53
2019-05-19T09:37:08.100Z,79.71
2019-05-19T09:39:38.124Z,80.33
2019-05-19T09:42:08.184Z,80.73
2019-05-19T09:44:38.300Z,80.63
2019-05-19T09:47:08.310Z,80.77
2019-05-19T09:49:38.316Z,80.16
2019-05-19T09:52:08.526Z,81.13
2019-05-19T09:54:45.393Z,80.88
2019-05-19T09:57:10.493Z,81.10
2019-05-19T09:59:40.604Z,81.35
2019-05-19T10:02:10.830Z,81.35
2019-05-19T10:04:40.976Z,81.15
2019-05-19T10:07:11.117Z,81.71
2019-05-19T10:10:02.559Z,80.10
2019-05-19T10:12:32.839Z,81.38
2019-05-19T10:15:03.496Z,81.25
2019-05-19T10:17:33.708Z,82.10
2019-05-19T10:20:05.870Z,82.25
2019-05-19T10:22:35.986Z,81.39
2019-05-19T10:25:20.837Z,80.63
2019-05-19T10:27:40.039Z,81.24
2019-05-19T10:30:10.887Z,80.41
2019-05-19T10:32:40.923Z,81.29
2019-05-19T10:35:11.084Z,81.80
2019-05-19T10:37:41.197Z,80.60
2019-05-19T10:40:11.577Z,80.04
2019-05-19T10:42:41.673Z,80.07
2019-05-19T10:45:13.784Z,80.49
2019-05-19T10:47:43.894Z,80.82
2019-05-19T10:50:14.526Z,80.57
2019-05-19T10:52:44.583Z,80.43
2019-05-19T10:55:14.983Z,80.56
2019-05-19T10:57:45.021Z,81.00
2019-05-19T11:00:15.413Z,80.84
2019-05-19T11:02:45.474Z,80.71
2019-05-19T11:05:36.032Z,79.86
2019-05-19T11:08:06.090Z,80.80
2019-05-19T11:10:36.081Z,79.36
2019-05-19T11:13:06.145Z,79.65
2019-05-19T11:15:36.176Z,79.06
2019-05-19T11:18:06.616Z,78.70
2019-05-19T11:20:36.728Z,77.52
2019-05-19T11:23:06.801Z,77.73
2019-05-19T11:25:50.699Z,77.22
2019-05-19T11:28:09.680Z,76.15
2019-05-19T11:30:39.696Z,76.67
2019-05-19T11:33:09.714Z,76.92
2019-05-19T11:35:39.717Z,76.20
2019-05-19T11:38:09.732Z,76.90
2019-05-19T11:40:39.750Z,74.50
2019-05-19T11:43:09.781Z,75.34
2019-05-19T11:45:39.843Z,74.04
2019-05-19T11:48:09.841Z,73.86
2019-05-19T11:50:42.025Z,71.14
2019-05-19T11:53:11.602Z,71.05
2019-05-19T11:55:41.699Z,68.36
2019-05-19T11:58:11.791Z,69.74
2019-05-19T12:00:41.792Z,71.29
2019-05-19T12:03:11.846Z,72.83
2019-05-19T12:05:44.172Z,67.29
2019-05-19T12:08:14.280Z,65.17
2019-05-19T12:10:44.300Z,63.34
2019-05-19T12:13:14.319Z,65.92
2019-05-19T12:15:44.315Z,66.30
2019-05-19T12:18:14.338Z,66.13
2019-05-19T12:20:44.343Z,65.94
2019-05-19T12:23:14.445Z,66.00
2019-05-19T12:25:44.458Z,64.77
2019-05-19T12:28:14.456Z,65.81
2019-05-19T12:30:44.580Z,64.20
2019-05-19T12:33:14.677Z,64.20
2019-05-19T12:35:44.675Z,63.99
2019-05-19T12:38:14.792Z,63.56
2019-05-19T12:40:44.787Z,62.63
2019-05-19T12:43:14.815Z,62.71
2019-05-19T12:45:44.927Z,61.97
2019-05-19T12:48:14.986Z,60.29
2019-05-19T12:50:45.070Z,58.00
2019-05-19T12:53:15.239Z,58.04
2019-05-19T12:55:45.258Z,58.39
2019-05-19T12:58:15.258Z,59.38
2019-05-19T13:00:45.467Z,60.26
2019-05-19T13:03:17.082Z,59.31
2019-05-19T13:05:47.096Z,59.17
2019-05-19T13:08:17.126Z,58.04
2019-05-19T13:10:47.142Z,59.03
2019-05-19T13:13:17.152Z,59.31
2019-05-19T13:15:47.192Z,59.90
2019-05-19T13:18:17.184Z,59.48
2019-05-19T13:20:47.369Z,58.67
2019-05-19T13:23:17.360Z,57.90
2019-05-19T13:25:47.383Z,57.84
2019-05-19T13:28:17.378Z,57.19
2019-05-19T13:30:48.584Z,56.28
2019-05-19T13:33:18.592Z,56.92
2019-05-19T13:35:48.576Z,58.82
2019-05-19T13:38:18.576Z,57.26
2019-05-19T13:40:48.609Z,58.15
2019-05-19T13:43:18.613Z,58.53
2019-05-19T13:45:48.688Z,57.29
2019-05-19T13:48:18.822Z,58.81
2019-05-19T13:50:48.906Z,58.23
2019-05-19T13:53:19.074Z,57.44
2019-05-19T13:55:49.028Z,56.49
2019-05-19T13:58:19.037Z,56.78
2019-05-19T14:00:49.073Z,56.61
2019-05-19T14:03:20.671Z,55.52
2019-05-19T14:05:50.654Z,56.23
2019-05-19T14:08:20.676Z,56.12
2019-05-19T14:10:50.698Z,55.75
2019-05-19T14:13:20.701Z,56.61
2019-05-19T14:15:50.755Z,57.43
2019-05-19T14:18:20.755Z,57.63
2019-05-19T14:20:50.897Z,57.45
2019-05-19T14:23:20.871Z,56.53
2019-05-19T14:25:50.958Z,56.49
2019-05-19T14:28:21.985Z,57.49
2019-05-19T14:30:52.027Z,57.31
2019-05-19T14:33:22.006Z,56.89
2019-05-19T14:35:52.024Z,56.30
2019-05-19T14:38:22.025Z,55.32
2019-05-19T14:40:52.160Z,53.02
2019-05-19T14:43:26.539Z,53.50
2019-05-19T14:45:56.543Z,53.94
2019-05-19T14:48:26.588Z,53.10
2019-05-19T14:50:56.599Z,50.35
2019-05-19T14:53:26.595Z,52.73
2019-05-19T14:55:56.595Z,51.58
2019-05-19T14:58:26.598Z,51.57
2019-05-19T15:00:56.592Z,51.36
2019-05-19T15:03:26.652Z,51.33
2019-05-19T15:05:56.641Z,51.12
2019-05-19T15:08:26.646Z,50.93
2019-05-19T15:10:56.664Z,50.60
2019-05-19T15:13:26.928Z,51.18
2019-05-19T15:15:58.100Z,50.65
2019-05-19T15:18:29.198Z,50.59
2019-05-19T15:20:59.260Z,50.84
2019-05-19T15:23:29.266Z,50.00
2019-05-19T15:25:59.302Z,48.92
2019-05-19T15:28:29.304Z,52.25
2019-05-19T15:30:59.299Z,49.77
2019-05-19T15:33:37.063Z,49.54
2019-05-19T15:36:01.003Z,51.06
2019-05-19T15:38:31.086Z,52.01
2019-05-19T15:41:01.067Z,51.40
2019-05-19T15:43:31.075Z,48.98
2019-05-19T15:46:01.160Z,50.26
2019-05-19T15:48:31.204Z,53.74
2019-05-19T15:51:01.184Z,52.30
2019-05-19T15:53:31.201Z,50.57
2019-05-19T15:56:01.189Z,48.96
2019-05-19T15:58:31.197Z,48.83
2019-05-19T16:01:01.262Z,47.90
2019-05-19T16:03:31.253Z,48.64
2019-05-19T16:06:01.281Z,48.59
2019-05-19T16:08:31.291Z,48.63
2019-05-19T16:11:01.274Z,48.59
2019-05-19T16:13:31.307Z,50.64
2019-05-19T16:16:01.302Z,49.43
2019-05-19T16:18:31.311Z,48.61
2019-05-19T16:21:01.315Z,50.04
2019-05-19T16:23:31.335Z,50.65
2019-05-19T16:26:01.343Z,52.23
2019-05-19T16:28:31.344Z,50.61
2019-05-19T16:31:01.373Z,50.14
2019-05-19T16:33:31.438Z,49.91
2019-05-19T16:36:01.456Z,49.96
2019-05-19T16:38:31.481Z,49.68
2019-05-19T16:41:01.531Z,49.02
2019-05-19T16:43:31.526Z,49.07
2019-05-19T16:46:01.522Z,48.65
2019-05-19T16:48:32.585Z,49.25
2019-05-19T16:51:02.691Z,50.31
2019-05-19T16:53:32.854Z,51.18
2019-05-19T16:56:02.890Z,49.48
2019-05-19T16:58:44.426Z,49.23
2019-05-19T17:01:04.993Z,49.46
2019-05-19T17:03:35.005Z,50.08
2019-05-19T17:06:05.028Z,50.33
2019-05-19T17:08:35.034Z,50.76
2019-05-19T17:11:17.620Z,49.91
2019-05-19T17:13:36.928Z,49.85
2019-05-19T17:16:06.902Z,50.92
2019-05-19T17:18:36.923Z,50.68
2019-05-19T17:21:06.969Z,51.39
2019-05-19T17:23:37.019Z,50.17
2019-05-19T17:26:07.079Z,49.78
2019-05-19T17:28:37.087Z,49.35
2019-05-19T17:31:07.821Z,50.62
2019-05-19T17:33:38.670Z,50.47
2019-05-19T17:36:09.803Z,49.48
2019-05-19T17:38:39.893Z,49.94
2019-05-19T17:41:09.902Z,52.07
2019-05-19T17:43:39.976Z,50.52
2019-05-19T17:46:09.990Z,50.97
2019-05-19T17:48:40.001Z,50.28
2019-05-19T17:51:10.067Z,49.61
2019-05-19T17:53:40.169Z,50.79
2019-05-19T17:56:10.228Z,50.59
2019-05-19T17:58:40.504Z,51.47
2019-05-19T18:01:10.607Z,50.94
2019-05-19T18:03:41.956Z,50.05
2019-05-19T18:06:11.952Z,52.07
2019-05-19T18:08:41.981Z,50.42
2019-05-19T18:11:11.970Z,50.66
2019-05-19T18:13:42.001Z,50.88
2019-05-19T18:16:12.009Z,51.27
2019-05-19T18:18:42.046Z,50.47
2019-05-19T18:21:12.045Z,50.79
2019-05-19T18:23:42.085Z,49.43
2019-05-19T18:26:12.091Z,50.99
2019-05-19T18:28:42.134Z,48.73
2019-05-19T18:31:12.399Z,49.21
2019-05-19T18:33:42.407Z,48.45
2019-05-19T18:36:12.390Z,47.81
2019-05-19T18:38:42.456Z,48.04
2019-05-19T18:41:12.448Z,48.19
2019-05-19T18:43:42.565Z,48.67
2019-05-19T18:46:12.577Z,48.90
2019-05-19T18:48:44.237Z,48.11
2019-05-19T18:51:14.365Z,48.77
2019-05-19T18:53:44.424Z,53.32
2019-05-19T18:56:14.442Z,56.74
2019-05-19T18:58:44.450Z,58.17
2019-05-19T19:01:14.716Z,58.57
2019-05-19T19:03:44.848Z,59.25
2019-05-19T19:06:14.964Z,59.84
2019-05-19T19:08:45.025Z,61.35
2019-05-19T19:11:15.033Z,62.05
2019-05-19T19:13:45.028Z,61.28
2019-05-19T19:16:15.025Z,61.38
2019-05-19T19:18:45.069Z,62.25
2019-05-19T19:21:15.050Z,63.15
2019-05-19T19:23:46.041Z,63.42
2019-05-19T19:26:16.073Z,63.55
2019-05-19T19:28:47.128Z,64.43
2019-05-19T19:31:17.173Z,65.29
2019-05-19T19:33:47.151Z,66.03
2019-05-19T19:36:17.199Z,66.45
2019-05-19T19:38:47.253Z,65.74
2019-05-19T19:41:17.263Z,65.85
2019-05-19T19:43:47.314Z,66.22
2019-05-19T19:46:17.328Z,66.07
2019-05-19T19:48:47.320Z,66.62
2019-05-19T19:51:17.309Z,66.15
2019-05-19T19:53:48.345Z,67.41
2019-05-19T19:56:18.351Z,68.41
2019-05-19T19:58:48.383Z,67.40
2019-05-19T20:01:18.372Z,67.40
2019-05-19T20:03:48.371Z,67.24
2019-05-19T20:06:18.376Z,67.94
2019-05-19T20:08:49.734Z,68.09
2019-05-19T20:11:19.754Z,67.93
2019-05-19T20:13:49.785Z,68.51
2019-05-19T20:16:19.770Z,69.24
2019-05-19T20:18:49.756Z,69.53
2019-05-19T20:21:19.746Z,70.24
2019-05-19T20:23:49.782Z,70.33
2019-05-19T20:26:19.798Z,69.60
2019-05-19T20:28:49.865Z,70.13
2019-05-19T20:31:19.834Z,71.73
2019-05-19T20:33:49.935Z,70.72
2019-05-19T20:36:19.954Z,72.17
2019-05-19T20:38:49.927Z,71.36
2019-05-19T20:41:19.935Z,71.28
2019-05-19T20:43:49.929Z,71.46
2019-05-19T20:46:19.939Z,71.80
2019-05-19T20:48:49.932Z,71.51
2019-05-19T20:51:19.991Z,72.21
2019-05-19T20:53:53.157Z,72.32
2019-05-19T20:56:21.674Z,71.88
2019-05-19T20:58:51.722Z,71.84
2019-05-19T21:01:21.706Z,71.85
2019-05-19T21:03:51.730Z,72.04
2019-05-19T21:06:21.723Z,71.89
2019-05-19T21:08:51.831Z,71.79
2019-05-19T21:11:21.839Z,72.50
2019-05-19T21:13:51.915Z,72.36
2019-05-19T21:16:21.991Z,73.35
2019-05-19T21:19:11.707Z,72.59
2019-05-19T21:21:41.679Z,73.13
2019-05-19T21:24:11.714Z,72.88
2019-05-19T21:26:41.706Z,73.28
2019-05-19T21:29:11.717Z,73.18
2019-05-19T21:31:41.740Z,73.64
2019-05-19T21:34:11.720Z,73.16
2019-05-19T21:36:41.779Z,73.49
2019-05-19T21:39:11.798Z,73.62
2019-05-19T21:41:41.857Z,73.25
2019-05-19T21:44:11.880Z,73.61
2019-05-19T21:46:41.880Z,73.31
2019-05-19T21:49:11.978Z,73.29
2019-05-19T21:51:41.986Z,73.94
2019-05-19T21:54:12.411Z,74.31
2019-05-19T21:56:42.480Z,74.70
2019-05-19T21:59:12.488Z,74.76
2019-05-19T22:01:42.641Z,75.11
2019-05-19T22:04:12.658Z,74.36
2019-05-19T22:06:45.471Z,74.29
2019-05-19T22:09:15.536Z,74.38
2019-05-19T22:11:45.569Z,75.35
2019-05-19T22:14:17.151Z,75.08
2019-05-19T22:16:47.157Z,74.27
2019-05-19T22:19:17.264Z,74.18
2019-05-19T22:21:47.250Z,74.53
2019-05-19T22:24:17.266Z,74.48
2019-05-19T22:26:47.256Z,74.69
2019-05-19T22:29:17.263Z,75.10
2019-05-19T22:31:47.301Z,75.17
2019-05-19T22:34:17.308Z,75.09
2019-05-19T22:36:47.355Z,75.00
2019-05-19T22:39:17.355Z,75.31
2019-05-19T22:41:47.454Z,75.30
2019-05-19T22:44:20.151Z,75.89
2019-05-19T22:46:49.284Z,75.22
2019-05-19T22:49:19.289Z,74.97
2019-05-19T22:51:49.334Z,75.82
2019-05-19T22:54:19.347Z,75.69
2019-05-19T22:56:49.407Z,76.05
2019-05-19T22:59:20.566Z,75.93
2019-05-19T23:01:52.078Z,75.54
2019-05-19T23:04:22.387Z,75.61
2019-05-19T23:06:52.454Z,75.77
2019-05-19T23:09:22.474Z,75.90
2019-05-19T23:11:52.493Z,75.91
2019-05-19T23:14:24.419Z,76.12
2019-05-19T23:16:54.431Z,76.32
2019-05-19T23:19:24.513Z,76.22
2019-05-19T23:21:54.516Z,76.60
2019-05-19T23:24:25.647Z,76.42
2019-05-19T23:26:55.630Z,76.05
2019-05-19T23:29:25.726Z,76.71
2019-05-19T23:32:06.652Z,76.66
2019-05-19T23:34:27.448Z,76.69
2019-05-19T23:36:57.446Z,76.65
2019-05-19T23:39:27.472Z,76.46
2019-05-19T23:41:57.487Z,76.62
2019-05-19T23:44:27.529Z,76.83
2019-05-19T23:46:57.555Z,77.02
2019-05-19T23:49:27.597Z,76.84
2019-05-19T23:51:57.666Z,77.70
2019-05-19T23:54:27.710Z,77.47
2019-05-19T23:56:57.724Z,77.70
2019-05-19T23:59:27.754Z,78.73
